sensor_id;sensor_type;location;lat;lon;timestamp;P1;durP1;ratioP1;P2;durP2;ratioP2
4472;SDS011;2249;42.626;23.320;2024-01-30T00:01:46;7.27;;;6.00;;
4472;SDS011;2249;42.626;23.320;2024-01-30T00:04:13;7.93;;;5.87;;
4472;SDS011;2249;42.626;23.320;2024-01-30T00:06:41;7.47;;;5.47;;
4472;SDS011;2249;42.626;23.320;2024-01-30T00:09:07;8.50;;;5.80;;
4472;SDS011;2249;42.626;23.320;2024-01-30T00:11:34;7.20;;;5.90;;
4472;SDS011;2249;42.626;23.320;2024-01-30T00:14:01;6.70;;;5.13;;
4472;SDS011;2249;42.626;23.320;2024-01-30T00:16:28;7.30;;;4.93;;
4472;SDS011;2249;42.626;23.320;2024-01-30T00:18:54;6.13;;;4.70;;
4472;SDS011;2249;42.626;23.320;2024-01-30T00:21:21;9.30;;;4.83;;
4472;SDS011;2249;42.626;23.320;2024-01-30T00:23:49;7.53;;;5.23;;
4472;SDS011;2249;42.626;23.320;2024-01-30T00:26:15;7.77;;;4.93;;
4472;SDS011;2249;42.626;23.320;2024-01-30T00:28:42;6.00;;;4.67;;
4472;SDS011;2249;42.626;23.320;2024-01-30T00:31:08;7.63;;;5.47;;
4472;SDS011;2249;42.626;23.320;2024-01-30T00:33:37;6.13;;;4.83;;
4472;SDS011;2249;42.626;23.320;2024-01-30T00:36:04;6.50;;;4.80;;
4472;SDS011;2249;42.626;23.320;2024-01-30T00:38:31;8.13;;;5.10;;
4472;SDS011;2249;42.626;23.320;2024-01-30T00:40:59;5.60;;;4.50;;
4472;SDS011;2249;42.626;23.320;2024-01-30T00:43:26;7.10;;;6.03;;
4472;SDS011;2249;42.626;23.320;2024-01-30T00:45:53;6.70;;;5.00;;
4472;SDS011;2249;42.626;23.320;2024-01-30T00:48:20;9.30;;;6.33;;
4472;SDS011;2249;42.626;23.320;2024-01-30T00:50:46;7.23;;;5.37;;
4472;SDS011;2249;42.626;23.320;2024-01-30T00:53:13;6.53;;;5.30;;
4472;SDS011;2249;42.626;23.320;2024-01-30T00:55:39;8.47;;;5.83;;
4472;SDS011;2249;42.626;23.320;2024-01-30T00:58:07;7.87;;;5.53;;
4472;SDS011;2249;42.626;23.320;2024-01-30T01:00:33;6.97;;;5.70;;
4472;SDS011;2249;42.626;23.320;2024-01-30T01:03:00;6.17;;;4.93;;
4472;SDS011;2249;42.626;23.320;2024-01-30T01:05:26;7.50;;;5.70;;
4472;SDS011;2249;42.626;23.320;2024-01-30T01:07:53;10.43;;;6.00;;
4472;SDS011;2249;42.626;23.320;2024-01-30T01:10:19;7.07;;;5.70;;
4472;SDS011;2249;42.626;23.320;2024-01-30T01:12:46;7.53;;;5.67;;
4472;SDS011;2249;42.626;23.320;2024-01-30T01:15:14;6.70;;;5.33;;
4472;SDS011;2249;42.626;23.320;2024-01-30T01:17:40;8.90;;;6.70;;
4472;SDS011;2249;42.626;23.320;2024-01-30T01:20:07;7.43;;;6.17;;
4472;SDS011;2249;42.626;23.320;2024-01-30T01:22:35;7.37;;;5.80;;
4472;SDS011;2249;42.626;23.320;2024-01-30T01:25:03;6.40;;;5.03;;
4472;SDS011;2249;42.626;23.320;2024-01-30T01:27:32;5.50;;;4.40;;
4472;SDS011;2249;42.626;23.320;2024-01-30T01:29:59;13.53;;;8.67;;
4472;SDS011;2249;42.626;23.320;2024-01-30T01:32:27;7.90;;;5.47;;
4472;SDS011;2249;42.626;23.320;2024-01-30T01:34:54;38.90;;;14.93;;
4472;SDS011;2249;42.626;23.320;2024-01-30T01:37:20;5.50;;;4.30;;
4472;SDS011;2249;42.626;23.320;2024-01-30T01:39:47;2.70;;;2.50;;
4472;SDS011;2249;42.626;23.320;2024-01-30T01:42:14;4.53;;;2.80;;
4472;SDS011;2249;42.626;23.320;2024-01-30T01:44:40;4.13;;;3.07;;
4472;SDS011;2249;42.626;23.320;2024-01-30T01:47:07;4.90;;;3.70;;
4472;SDS011;2249;42.626;23.320;2024-01-30T01:49:35;4.67;;;3.63;;
4472;SDS011;2249;42.626;23.320;2024-01-30T01:52:01;4.10;;;3.80;;
4472;SDS011;2249;42.626;23.320;2024-01-30T01:54:28;9.17;;;6.27;;
4472;SDS011;2249;42.626;23.320;2024-01-30T01:56:55;4.53;;;4.13;;
4472;SDS011;2249;42.626;23.320;2024-01-30T01:59:22;5.60;;;4.10;;
4472;SDS011;2249;42.626;23.320;2024-01-30T02:01:49;5.27;;;4.23;;
4472;SDS011;2249;42.626;23.320;2024-01-30T02:04:16;6.30;;;4.30;;
4472;SDS011;2249;42.626;23.320;2024-01-30T02:06:43;5.53;;;4.50;;
4472;SDS011;2249;42.626;23.320;2024-01-30T02:09:10;6.50;;;4.93;;
4472;SDS011;2249;42.626;23.320;2024-01-30T02:11:36;5.73;;;4.90;;
4472;SDS011;2249;42.626;23.320;2024-01-30T02:14:03;5.40;;;4.60;;
4472;SDS011;2249;42.626;23.320;2024-01-30T02:16:30;6.80;;;5.03;;
4472;SDS011;2249;42.626;23.320;2024-01-30T02:18:56;5.23;;;4.73;;
4472;SDS011;2249;42.626;23.320;2024-01-30T02:21:24;6.27;;;4.27;;
4472;SDS011;2249;42.626;23.320;2024-01-30T02:23:51;6.30;;;4.57;;
4472;SDS011;2249;42.626;23.320;2024-01-30T02:26:18;4.53;;;4.00;;
4472;SDS011;2249;42.626;23.320;2024-01-30T02:28:45;7.90;;;5.70;;
4472;SDS011;2249;42.626;23.320;2024-01-30T02:31:11;7.50;;;5.40;;
4472;SDS011;2249;42.626;23.320;2024-01-30T02:33:38;5.77;;;5.03;;
4472;SDS011;2249;42.626;23.320;2024-01-30T02:36:04;7.80;;;5.20;;
4472;SDS011;2249;42.626;23.320;2024-01-30T02:38:32;5.97;;;4.80;;
4472;SDS011;2249;42.626;23.320;2024-01-30T02:40:59;6.40;;;4.93;;
4472;SDS011;2249;42.626;23.320;2024-01-30T02:43:25;6.87;;;5.93;;
4472;SDS011;2249;42.626;23.320;2024-01-30T02:45:51;6.50;;;5.23;;
4472;SDS011;2249;42.626;23.320;2024-01-30T02:48:18;5.10;;;4.43;;
4472;SDS011;2249;42.626;23.320;2024-01-30T02:50:44;5.63;;;4.80;;
4472;SDS011;2249;42.626;23.320;2024-01-30T02:53:12;5.27;;;4.57;;
4472;SDS011;2249;42.626;23.320;2024-01-30T02:55:40;4.70;;;4.10;;
4472;SDS011;2249;42.626;23.320;2024-01-30T02:58:06;5.23;;;4.50;;
4472;SDS011;2249;42.626;23.320;2024-01-30T03:00:33;4.97;;;3.93;;
4472;SDS011;2249;42.626;23.320;2024-01-30T03:03:00;5.70;;;4.47;;
4472;SDS011;2249;42.626;23.320;2024-01-30T03:05:27;8.30;;;6.20;;
4472;SDS011;2249;42.626;23.320;2024-01-30T03:07:53;6.40;;;5.70;;
4472;SDS011;2249;42.626;23.320;2024-01-30T03:10:20;6.80;;;4.80;;
4472;SDS011;2249;42.626;23.320;2024-01-30T03:12:47;4.97;;;4.00;;
4472;SDS011;2249;42.626;23.320;2024-01-30T03:15:14;6.10;;;4.40;;
4472;SDS011;2249;42.626;23.320;2024-01-30T03:17:40;6.60;;;4.33;;
4472;SDS011;2249;42.626;23.320;2024-01-30T03:20:07;5.53;;;4.10;;
4472;SDS011;2249;42.626;23.320;2024-01-30T03:22:34;4.70;;;4.20;;
4472;SDS011;2249;42.626;23.320;2024-01-30T03:25:01;4.90;;;4.20;;
4472;SDS011;2249;42.626;23.320;2024-01-30T03:27:27;5.90;;;4.33;;
4472;SDS011;2249;42.626;23.320;2024-01-30T03:29:56;5.33;;;4.67;;
4472;SDS011;2249;42.626;23.320;2024-01-30T03:32:22;5.30;;;3.90;;
4472;SDS011;2249;42.626;23.320;2024-01-30T03:34:49;3.53;;;3.00;;
4472;SDS011;2249;42.626;23.320;2024-01-30T03:37:15;4.27;;;3.50;;
4472;SDS011;2249;42.626;23.320;2024-01-30T03:39:42;5.03;;;4.20;;
4472;SDS011;2249;42.626;23.320;2024-01-30T03:42:08;5.83;;;5.23;;
4472;SDS011;2249;42.626;23.320;2024-01-30T03:44:35;5.43;;;4.00;;
4472;SDS011;2249;42.626;23.320;2024-01-30T03:47:03;4.90;;;4.00;;
4472;SDS011;2249;42.626;23.320;2024-01-30T03:49:29;11.63;;;3.70;;
4472;SDS011;2249;42.626;23.320;2024-01-30T03:51:56;3.53;;;3.17;;
4472;SDS011;2249;42.626;23.320;2024-01-30T03:54:22;3.50;;;3.20;;
4472;SDS011;2249;42.626;23.320;2024-01-30T03:56:49;3.90;;;3.50;;
4472;SDS011;2249;42.626;23.320;2024-01-30T03:59:15;5.10;;;3.50;;
4472;SDS011;2249;42.626;23.320;2024-01-30T04:01:42;5.10;;;4.00;;
4472;SDS011;2249;42.626;23.320;2024-01-30T04:04:10;3.13;;;2.83;;
4472;SDS011;2249;42.626;23.320;2024-01-30T04:06:37;2.83;;;2.57;;
4472;SDS011;2249;42.626;23.320;2024-01-30T04:09:03;4.10;;;2.90;;
4472;SDS011;2249;42.626;23.320;2024-01-30T04:11:30;3.50;;;3.20;;
4472;SDS011;2249;42.626;23.320;2024-01-30T04:13:56;4.17;;;3.00;;
4472;SDS011;2249;42.626;23.320;2024-01-30T04:16:23;2.57;;;2.37;;
4472;SDS011;2249;42.626;23.320;2024-01-30T04:18:51;2.60;;;2.40;;
4472;SDS011;2249;42.626;23.320;2024-01-30T04:21:20;2.20;;;2.00;;
4472;SDS011;2249;42.626;23.320;2024-01-30T04:23:46;2.50;;;2.30;;
4472;SDS011;2249;42.626;23.320;2024-01-30T04:26:13;3.30;;;3.00;;
4472;SDS011;2249;42.626;23.320;2024-01-30T04:28:41;3.00;;;2.70;;
4472;SDS011;2249;42.626;23.320;2024-01-30T04:31:07;2.67;;;2.47;;
4472;SDS011;2249;42.626;23.320;2024-01-30T04:33:34;2.60;;;2.40;;
4472;SDS011;2249;42.626;23.320;2024-01-30T04:36:00;3.80;;;2.37;;
4472;SDS011;2249;42.626;23.320;2024-01-30T04:38:28;3.40;;;3.10;;
4472;SDS011;2249;42.626;23.320;2024-01-30T04:40:54;3.00;;;2.47;;
4472;SDS011;2249;42.626;23.320;2024-01-30T04:43:21;3.50;;;2.80;;
4472;SDS011;2249;42.626;23.320;2024-01-30T04:45:48;2.20;;;2.00;;
4472;SDS011;2249;42.626;23.320;2024-01-30T04:48:15;2.50;;;2.10;;
4472;SDS011;2249;42.626;23.320;2024-01-30T04:50:41;3.77;;;2.43;;
4472;SDS011;2249;42.626;23.320;2024-01-30T04:53:08;3.30;;;2.93;;
4472;SDS011;2249;42.626;23.320;2024-01-30T04:55:36;3.43;;;3.13;;
4472;SDS011;2249;42.626;23.320;2024-01-30T04:58:02;2.57;;;2.37;;
4472;SDS011;2249;42.626;23.320;2024-01-30T05:00:29;2.70;;;2.00;;
4472;SDS011;2249;42.626;23.320;2024-01-30T05:02:55;3.70;;;2.20;;
4472;SDS011;2249;42.626;23.320;2024-01-30T05:05:22;2.47;;;2.10;;
4472;SDS011;2249;42.626;23.320;2024-01-30T05:07:48;3.20;;;2.90;;
4472;SDS011;2249;42.626;23.320;2024-01-30T05:10:15;3.67;;;2.53;;
4472;SDS011;2249;42.626;23.320;2024-01-30T05:12:43;2.37;;;2.17;;
4472;SDS011;2249;42.626;23.320;2024-01-30T05:15:09;3.07;;;2.40;;
4472;SDS011;2249;42.626;23.320;2024-01-30T05:17:36;3.23;;;2.77;;
4472;SDS011;2249;42.626;23.320;2024-01-30T05:20:02;2.50;;;2.17;;
4472;SDS011;2249;42.626;23.320;2024-01-30T05:22:29;3.27;;;2.83;;
4472;SDS011;2249;42.626;23.320;2024-01-30T05:24:56;7.03;;;2.50;;
4472;SDS011;2249;42.626;23.320;2024-01-30T05:27:22;2.67;;;2.37;;
4472;SDS011;2249;42.626;23.320;2024-01-30T05:29:50;2.77;;;2.50;;
4472;SDS011;2249;42.626;23.320;2024-01-30T05:32:17;8.20;;;3.00;;
4472;SDS011;2249;42.626;23.320;2024-01-30T05:34:44;3.87;;;3.20;;
4472;SDS011;2249;42.626;23.320;2024-01-30T05:37:10;6.47;;;3.33;;
4472;SDS011;2249;42.626;23.320;2024-01-30T05:39:39;4.27;;;3.30;;
4472;SDS011;2249;42.626;23.320;2024-01-30T05:42:06;5.10;;;3.80;;
4472;SDS011;2249;42.626;23.320;2024-01-30T05:44:32;5.43;;;3.77;;
4472;SDS011;2249;42.626;23.320;2024-01-30T05:47:00;5.70;;;3.53;;
4472;SDS011;2249;42.626;23.320;2024-01-30T05:49:26;4.83;;;3.43;;
4472;SDS011;2249;42.626;23.320;2024-01-30T05:51:53;7.53;;;4.03;;
4472;SDS011;2249;42.626;23.320;2024-01-30T05:54:19;5.23;;;3.53;;
4472;SDS011;2249;42.626;23.320;2024-01-30T05:56:46;7.63;;;3.93;;
4472;SDS011;2249;42.626;23.320;2024-01-30T05:59:12;5.90;;;4.53;;
4472;SDS011;2249;42.626;23.320;2024-01-30T06:01:45;5.53;;;4.10;;
4472;SDS011;2249;42.626;23.320;2024-01-30T06:04:13;5.10;;;3.67;;
4472;SDS011;2249;42.626;23.320;2024-01-30T06:06:39;4.63;;;3.40;;
4472;SDS011;2249;42.626;23.320;2024-01-30T06:09:05;6.27;;;3.73;;
4472;SDS011;2249;42.626;23.320;2024-01-30T06:11:34;4.67;;;4.20;;
4472;SDS011;2249;42.626;23.320;2024-01-30T06:14:00;6.50;;;5.00;;
4472;SDS011;2249;42.626;23.320;2024-01-30T06:16:27;11.40;;;5.30;;
4472;SDS011;2249;42.626;23.320;2024-01-30T06:18:54;10.53;;;6.63;;
4472;SDS011;2249;42.626;23.320;2024-01-30T06:21:23;12.13;;;7.20;;
4472;SDS011;2249;42.626;23.320;2024-01-30T06:23:49;13.40;;;8.70;;
4472;SDS011;2249;42.626;23.320;2024-01-30T06:26:16;13.67;;;9.07;;
4472;SDS011;2249;42.626;23.320;2024-01-30T06:28:42;12.27;;;8.23;;
4472;SDS011;2249;42.626;23.320;2024-01-30T06:31:09;9.97;;;7.77;;
4472;SDS011;2249;42.626;23.320;2024-01-30T06:33:36;9.13;;;6.13;;
4472;SDS011;2249;42.626;23.320;2024-01-30T06:36:02;11.67;;;5.27;;
4472;SDS011;2249;42.626;23.320;2024-01-30T06:38:30;7.30;;;4.70;;
4472;SDS011;2249;42.626;23.320;2024-01-30T06:40:57;10.33;;;4.53;;
4472;SDS011;2249;42.626;23.320;2024-01-30T06:43:23;6.37;;;4.97;;
4472;SDS011;2249;42.626;23.320;2024-01-30T06:45:50;4.47;;;3.60;;
4472;SDS011;2249;42.626;23.320;2024-01-30T06:48:17;4.67;;;2.93;;
4472;SDS011;2249;42.626;23.320;2024-01-30T06:50:43;4.53;;;2.97;;
4472;SDS011;2249;42.626;23.320;2024-01-30T06:53:10;5.07;;;3.10;;
4472;SDS011;2249;42.626;23.320;2024-01-30T06:55:38;4.60;;;3.23;;
4472;SDS011;2249;42.626;23.320;2024-01-30T06:58:05;3.33;;;3.00;;
4472;SDS011;2249;42.626;23.320;2024-01-30T07:00:31;3.10;;;2.37;;
4472;SDS011;2249;42.626;23.320;2024-01-30T07:02:58;3.37;;;2.40;;
4472;SDS011;2249;42.626;23.320;2024-01-30T07:05:24;3.57;;;2.77;;
4472;SDS011;2249;42.626;23.320;2024-01-30T07:07:51;2.63;;;2.43;;
4472;SDS011;2249;42.626;23.320;2024-01-30T07:10:17;2.20;;;2.00;;
4472;SDS011;2249;42.626;23.320;2024-01-30T07:12:45;2.97;;;2.20;;
4472;SDS011;2249;42.626;23.320;2024-01-30T07:15:12;2.03;;;1.87;;
4472;SDS011;2249;42.626;23.320;2024-01-30T07:17:41;2.30;;;2.10;;
4472;SDS011;2249;42.626;23.320;2024-01-30T07:20:08;2.90;;;2.03;;
4472;SDS011;2249;42.626;23.320;2024-01-30T07:22:35;3.33;;;2.20;;
4472;SDS011;2249;42.626;23.320;2024-01-30T07:25:02;3.80;;;2.60;;
4472;SDS011;2249;42.626;23.320;2024-01-30T07:27:29;4.47;;;3.20;;
4472;SDS011;2249;42.626;23.320;2024-01-30T07:29:56;2.97;;;2.30;;
4472;SDS011;2249;42.626;23.320;2024-01-30T07:32:23;2.80;;;2.20;;
4472;SDS011;2249;42.626;23.320;2024-01-30T07:34:50;5.13;;;2.40;;
4472;SDS011;2249;42.626;23.320;2024-01-30T07:37:16;2.77;;;2.27;;
4472;SDS011;2249;42.626;23.320;2024-01-30T07:39:42;3.07;;;2.33;;
4472;SDS011;2249;42.626;23.320;2024-01-30T07:42:10;2.63;;;2.30;;
4472;SDS011;2249;42.626;23.320;2024-01-30T07:44:36;3.23;;;2.23;;
4472;SDS011;2249;42.626;23.320;2024-01-30T07:47:04;3.17;;;2.40;;
4472;SDS011;2249;42.626;23.320;2024-01-30T07:49:31;5.60;;;2.93;;
4472;SDS011;2249;42.626;23.320;2024-01-30T07:52:00;4.10;;;2.63;;
4472;SDS011;2249;42.626;23.320;2024-01-30T07:54:27;2.33;;;2.10;;
4472;SDS011;2249;42.626;23.320;2024-01-30T07:56:58;2.40;;;2.20;;
4472;SDS011;2249;42.626;23.320;2024-01-30T07:59:24;2.77;;;2.23;;
4472;SDS011;2249;42.626;23.320;2024-01-30T08:01:51;4.93;;;2.60;;
4472;SDS011;2249;42.626;23.320;2024-01-30T08:04:19;3.20;;;2.30;;
4472;SDS011;2249;42.626;23.320;2024-01-30T08:06:45;2.90;;;2.60;;
4472;SDS011;2249;42.626;23.320;2024-01-30T08:09:12;2.83;;;2.40;;
4472;SDS011;2249;42.626;23.320;2024-01-30T08:11:38;3.37;;;2.70;;
4472;SDS011;2249;42.626;23.320;2024-01-30T08:14:05;2.77;;;2.57;;
4472;SDS011;2249;42.626;23.320;2024-01-30T08:16:31;4.00;;;2.63;;
4472;SDS011;2249;42.626;23.320;2024-01-30T08:18:58;3.13;;;2.83;;
4472;SDS011;2249;42.626;23.320;2024-01-30T08:21:26;2.50;;;2.30;;
4472;SDS011;2249;42.626;23.320;2024-01-30T08:23:52;3.43;;;2.67;;
4472;SDS011;2249;42.626;23.320;2024-01-30T08:26:19;4.13;;;2.73;;
4472;SDS011;2249;42.626;23.320;2024-01-30T08:28:45;4.60;;;3.00;;
4472;SDS011;2249;42.626;23.320;2024-01-30T08:31:12;2.80;;;2.60;;
4472;SDS011;2249;42.626;23.320;2024-01-30T08:33:38;2.63;;;2.43;;
4472;SDS011;2249;42.626;23.320;2024-01-30T08:36:05;3.17;;;2.80;;
4472;SDS011;2249;42.626;23.320;2024-01-30T08:38:33;3.57;;;3.10;;
4472;SDS011;2249;42.626;23.320;2024-01-30T08:40:59;4.17;;;3.20;;
4472;SDS011;2249;42.626;23.320;2024-01-30T08:43:26;4.00;;;3.03;;
4472;SDS011;2249;42.626;23.320;2024-01-30T08:45:52;3.03;;;2.70;;
4472;SDS011;2249;42.626;23.320;2024-01-30T08:48:19;3.23;;;2.93;;
4472;SDS011;2249;42.626;23.320;2024-01-30T08:50:46;3.23;;;2.90;;
4472;SDS011;2249;42.626;23.320;2024-01-30T08:53:13;3.17;;;2.73;;
4472;SDS011;2249;42.626;23.320;2024-01-30T08:55:40;3.80;;;3.20;;
4472;SDS011;2249;42.626;23.320;2024-01-30T08:58:07;5.83;;;3.30;;
4472;SDS011;2249;42.626;23.320;2024-01-30T09:00:33;4.30;;;3.23;;
4472;SDS011;2249;42.626;23.320;2024-01-30T09:03:00;4.17;;;3.57;;
4472;SDS011;2249;42.626;23.320;2024-01-30T09:05:26;4.63;;;3.40;;
4472;SDS011;2249;42.626;23.320;2024-01-30T09:07:53;3.90;;;3.47;;
4472;SDS011;2249;42.626;23.320;2024-01-30T09:10:19;8.80;;;4.23;;
4472;SDS011;2249;42.626;23.320;2024-01-30T09:12:47;5.30;;;3.80;;
4472;SDS011;2249;42.626;23.320;2024-01-30T09:15:14;4.57;;;3.70;;
4472;SDS011;2249;42.626;23.320;2024-01-30T09:17:41;7.27;;;4.50;;
4472;SDS011;2249;42.626;23.320;2024-01-30T09:20:07;6.80;;;3.77;;
4472;SDS011;2249;42.626;23.320;2024-01-30T09:22:34;6.70;;;4.60;;
4472;SDS011;2249;42.626;23.320;2024-01-30T09:25:01;7.77;;;3.60;;
4472;SDS011;2249;42.626;23.320;2024-01-30T09:27:27;5.67;;;3.93;;
4472;SDS011;2249;42.626;23.320;2024-01-30T09:29:55;5.53;;;4.10;;
4472;SDS011;2249;42.626;23.320;2024-01-30T09:32:21;4.53;;;4.07;;
4472;SDS011;2249;42.626;23.320;2024-01-30T09:34:48;4.80;;;4.30;;
4472;SDS011;2249;42.626;23.320;2024-01-30T09:37:14;5.13;;;4.33;;
4472;SDS011;2249;42.626;23.320;2024-01-30T09:39:43;3.87;;;3.50;;
4472;SDS011;2249;42.626;23.320;2024-01-30T09:42:10;6.10;;;4.40;;
4472;SDS011;2249;42.626;23.320;2024-01-30T09:44:38;4.70;;;3.67;;
4472;SDS011;2249;42.626;23.320;2024-01-30T09:47:08;8.47;;;4.53;;
4472;SDS011;2249;42.626;23.320;2024-01-30T09:49:35;5.97;;;4.33;;
4472;SDS011;2249;42.626;23.320;2024-01-30T09:52:01;6.37;;;4.00;;
4472;SDS011;2249;42.626;23.320;2024-01-30T09:54:28;4.67;;;4.00;;
4472;SDS011;2249;42.626;23.320;2024-01-30T09:56:57;7.80;;;4.60;;
4472;SDS011;2249;42.626;23.320;2024-01-30T09:59:23;3.90;;;3.57;;
4472;SDS011;2249;42.626;23.320;2024-01-30T10:01:50;6.50;;;4.17;;
4472;SDS011;2249;42.626;23.320;2024-01-30T10:04:18;5.57;;;4.43;;
4472;SDS011;2249;42.626;23.320;2024-01-30T10:06:45;8.10;;;4.67;;
4472;SDS011;2249;42.626;23.320;2024-01-30T10:09:12;7.77;;;4.50;;
4472;SDS011;2249;42.626;23.320;2024-01-30T10:11:39;5.87;;;4.60;;
4472;SDS011;2249;42.626;23.320;2024-01-30T10:14:05;7.13;;;4.60;;
4472;SDS011;2249;42.626;23.320;2024-01-30T10:16:32;6.63;;;4.60;;
4472;SDS011;2249;42.626;23.320;2024-01-30T10:19:00;6.50;;;4.70;;
4472;SDS011;2249;42.626;23.320;2024-01-30T10:21:29;4.73;;;4.07;;
4472;SDS011;2249;42.626;23.320;2024-01-30T10:23:55;5.80;;;3.70;;
4472;SDS011;2249;42.626;23.320;2024-01-30T10:26:22;11.07;;;4.40;;
4472;SDS011;2249;42.626;23.320;2024-01-30T10:28:48;4.57;;;4.07;;
4472;SDS011;2249;42.626;23.320;2024-01-30T10:31:16;5.27;;;3.60;;
4472;SDS011;2249;42.626;23.320;2024-01-30T10:33:43;8.20;;;4.90;;
4472;SDS011;2249;42.626;23.320;2024-01-30T10:36:10;5.20;;;4.23;;
4472;SDS011;2249;42.626;23.320;2024-01-30T10:38:42;7.63;;;4.57;;
4472;SDS011;2249;42.626;23.320;2024-01-30T10:41:08;5.47;;;4.67;;
4472;SDS011;2249;42.626;23.320;2024-01-30T10:43:40;5.10;;;4.60;;
4472;SDS011;2249;42.626;23.320;2024-01-30T10:46:09;8.57;;;5.53;;
4472;SDS011;2249;42.626;23.320;2024-01-30T10:48:37;6.90;;;5.67;;
4472;SDS011;2249;42.626;23.320;2024-01-30T10:51:08;6.20;;;5.00;;
4472;SDS011;2249;42.626;23.320;2024-01-30T10:53:35;5.43;;;4.53;;
4472;SDS011;2249;42.626;23.320;2024-01-30T10:56:04;7.87;;;4.50;;
4472;SDS011;2249;42.626;23.320;2024-01-30T10:58:30;5.27;;;4.30;;
4472;SDS011;2249;42.626;23.320;2024-01-30T11:00:57;5.53;;;3.90;;
4472;SDS011;2249;42.626;23.320;2024-01-30T11:03:24;3.93;;;3.57;;
4472;SDS011;2249;42.626;23.320;2024-01-30T11:05:52;4.93;;;3.93;;
4472;SDS011;2249;42.626;23.320;2024-01-30T11:08:27;4.60;;;4.03;;
4472;SDS011;2249;42.626;23.320;2024-01-30T11:10:55;6.73;;;4.30;;
4472;SDS011;2249;42.626;23.320;2024-01-30T11:13:23;5.50;;;4.03;;
4472;SDS011;2249;42.626;23.320;2024-01-30T11:15:52;6.43;;;4.60;;
4472;SDS011;2249;42.626;23.320;2024-01-30T11:18:25;4.00;;;3.60;;
4472;SDS011;2249;42.626;23.320;2024-01-30T11:20:51;6.70;;;4.47;;
4472;SDS011;2249;42.626;23.320;2024-01-30T11:23:18;4.80;;;4.07;;
4472;SDS011;2249;42.626;23.320;2024-01-30T11:25:45;5.33;;;4.10;;
4472;SDS011;2249;42.626;23.320;2024-01-30T11:28:13;5.70;;;4.13;;
4472;SDS011;2249;42.626;23.320;2024-01-30T11:30:41;6.80;;;4.83;;
4472;SDS011;2249;42.626;23.320;2024-01-30T11:33:08;6.80;;;4.20;;
4472;SDS011;2249;42.626;23.320;2024-01-30T11:35:36;4.40;;;3.80;;
4472;SDS011;2249;42.626;23.320;2024-01-30T11:38:04;4.93;;;4.03;;
4472;SDS011;2249;42.626;23.320;2024-01-30T11:40:32;5.90;;;3.90;;
4472;SDS011;2249;42.626;23.320;2024-01-30T11:42:59;4.63;;;3.73;;
4472;SDS011;2249;42.626;23.320;2024-01-30T11:45:26;5.13;;;4.23;;
4472;SDS011;2249;42.626;23.320;2024-01-30T11:47:54;4.77;;;4.20;;
4472;SDS011;2249;42.626;23.320;2024-01-30T11:50:21;5.63;;;4.03;;
4472;SDS011;2249;42.626;23.320;2024-01-30T11:52:47;8.63;;;4.40;;
4472;SDS011;2249;42.626;23.320;2024-01-30T11:55:14;6.47;;;4.97;;
4472;SDS011;2249;42.626;23.320;2024-01-30T11:57:41;5.10;;;3.90;;
4472;SDS011;2249;42.626;23.320;2024-01-30T12:00:13;5.57;;;4.67;;
4472;SDS011;2249;42.626;23.320;2024-01-30T12:02:40;6.07;;;5.00;;
4472;SDS011;2249;42.626;23.320;2024-01-30T12:05:08;5.20;;;4.33;;
4472;SDS011;2249;42.626;23.320;2024-01-30T12:07:35;7.43;;;4.40;;
4472;SDS011;2249;42.626;23.320;2024-01-30T12:10:02;6.47;;;4.07;;
4472;SDS011;2249;42.626;23.320;2024-01-30T12:12:30;6.40;;;4.73;;
4472;SDS011;2249;42.626;23.320;2024-01-30T12:14:57;5.43;;;4.83;;
4472;SDS011;2249;42.626;23.320;2024-01-30T12:17:25;4.30;;;3.83;;
4472;SDS011;2249;42.626;23.320;2024-01-30T12:19:51;5.40;;;4.23;;
4472;SDS011;2249;42.626;23.320;2024-01-30T12:22:29;7.80;;;4.80;;
4472;SDS011;2249;42.626;23.320;2024-01-30T12:24:56;6.57;;;4.80;;
4472;SDS011;2249;42.626;23.320;2024-01-30T12:27:23;7.57;;;4.43;;
4472;SDS011;2249;42.626;23.320;2024-01-30T12:29:55;5.90;;;4.50;;
4472;SDS011;2249;42.626;23.320;2024-01-30T12:32:22;7.43;;;4.60;;
4472;SDS011;2249;42.626;23.320;2024-01-30T12:34:48;7.93;;;5.00;;
4472;SDS011;2249;42.626;23.320;2024-01-30T12:37:15;8.85;;;5.20;;
4472;SDS011;2249;42.626;23.320;2024-01-30T12:39:46;10.03;;;4.93;;
4472;SDS011;2249;42.626;23.320;2024-01-30T12:42:13;7.80;;;4.23;;
4472;SDS011;2249;42.626;23.320;2024-01-30T12:44:39;5.37;;;3.63;;
4472;SDS011;2249;42.626;23.320;2024-01-30T12:47:08;5.30;;;4.10;;
4472;SDS011;2249;42.626;23.320;2024-01-30T12:49:34;5.23;;;4.47;;
4472;SDS011;2249;42.626;23.320;2024-01-30T12:52:01;7.10;;;4.40;;
4472;SDS011;2249;42.626;23.320;2024-01-30T12:54:28;6.20;;;4.20;;
4472;SDS011;2249;42.626;23.320;2024-01-30T12:56:55;7.90;;;4.30;;
4472;SDS011;2249;42.626;23.320;2024-01-30T12:59:22;8.27;;;4.80;;
4472;SDS011;2249;42.626;23.320;2024-01-30T13:01:49;12.93;;;4.73;;
4472;SDS011;2249;42.626;23.320;2024-01-30T13:04:15;8.83;;;4.30;;
4472;SDS011;2249;42.626;23.320;2024-01-30T13:06:42;9.07;;;4.60;;
4472;SDS011;2249;42.626;23.320;2024-01-30T13:09:08;5.23;;;4.30;;
4472;SDS011;2249;42.626;23.320;2024-01-30T13:11:35;6.57;;;4.30;;
4472;SDS011;2249;42.626;23.320;2024-01-30T13:14:02;10.67;;;4.60;;
4472;SDS011;2249;42.626;23.320;2024-01-30T13:16:29;8.63;;;5.00;;
4472;SDS011;2249;42.626;23.320;2024-01-30T13:18:56;6.90;;;4.87;;
4472;SDS011;2249;42.626;23.320;2024-01-30T13:21:22;8.10;;;4.80;;
4472;SDS011;2249;42.626;23.320;2024-01-30T13:23:49;6.10;;;3.67;;
4472;SDS011;2249;42.626;23.320;2024-01-30T13:26:18;5.93;;;4.63;;
4472;SDS011;2249;42.626;23.320;2024-01-30T13:28:44;8.37;;;5.57;;
4472;SDS011;2249;42.626;23.320;2024-01-30T13:31:12;6.23;;;5.13;;
4472;SDS011;2249;42.626;23.320;2024-01-30T13:33:39;6.30;;;5.10;;
4472;SDS011;2249;42.626;23.320;2024-01-30T13:36:06;8.37;;;5.57;;
4472;SDS011;2249;42.626;23.320;2024-01-30T13:38:32;10.40;;;6.13;;
4472;SDS011;2249;42.626;23.320;2024-01-30T13:40:59;9.70;;;5.30;;
4472;SDS011;2249;42.626;23.320;2024-01-30T13:43:26;7.83;;;5.37;;
4472;SDS011;2249;42.626;23.320;2024-01-30T13:45:52;8.20;;;4.93;;
4472;SDS011;2249;42.626;23.320;2024-01-30T13:48:20;6.63;;;5.33;;
4472;SDS011;2249;42.626;23.320;2024-01-30T13:50:47;6.27;;;4.63;;
4472;SDS011;2249;42.626;23.320;2024-01-30T13:53:13;7.03;;;5.27;;
4472;SDS011;2249;42.626;23.320;2024-01-30T13:55:40;8.50;;;4.80;;
4472;SDS011;2249;42.626;23.320;2024-01-30T13:58:06;10.50;;;5.70;;
4472;SDS011;2249;42.626;23.320;2024-01-30T14:00:33;8.90;;;4.87;;
4472;SDS011;2249;42.626;23.320;2024-01-30T14:03:00;8.10;;;5.27;;
4472;SDS011;2249;42.626;23.320;2024-01-30T14:05:28;8.53;;;4.90;;
4472;SDS011;2249;42.626;23.320;2024-01-30T14:07:54;7.10;;;5.07;;
4472;SDS011;2249;42.626;23.320;2024-01-30T14:10:21;7.50;;;4.97;;
4472;SDS011;2249;42.626;23.320;2024-01-30T14:12:47;11.60;;;4.83;;
4472;SDS011;2249;42.626;23.320;2024-01-30T14:15:14;9.13;;;5.70;;
4472;SDS011;2249;42.626;23.320;2024-01-30T14:17:43;7.27;;;5.37;;
4472;SDS011;2249;42.626;23.320;2024-01-30T14:20:10;23.73;;;13.43;;
4472;SDS011;2249;42.626;23.320;2024-01-30T14:22:38;23.90;;;14.30;;
4472;SDS011;2249;42.626;23.320;2024-01-30T14:25:05;12.93;;;8.53;;
4472;SDS011;2249;42.626;23.320;2024-01-30T14:27:32;11.30;;;7.80;;
4472;SDS011;2249;42.626;23.320;2024-01-30T14:29:58;10.73;;;6.47;;
4472;SDS011;2249;42.626;23.320;2024-01-30T14:32:24;10.00;;;6.27;;
4472;SDS011;2249;42.626;23.320;2024-01-30T14:34:51;16.30;;;8.67;;
4472;SDS011;2249;42.626;23.320;2024-01-30T14:37:18;11.07;;;7.20;;
4472;SDS011;2249;42.626;23.320;2024-01-30T14:39:46;13.53;;;7.20;;
4472;SDS011;2249;42.626;23.320;2024-01-30T14:42:13;11.03;;;6.30;;
4472;SDS011;2249;42.626;23.320;2024-01-30T14:44:40;7.60;;;6.63;;
4472;SDS011;2249;42.626;23.320;2024-01-30T14:47:06;8.47;;;5.77;;
4472;SDS011;2249;42.626;23.320;2024-01-30T14:49:33;9.13;;;5.90;;
4472;SDS011;2249;42.626;23.320;2024-01-30T14:52:00;8.57;;;5.37;;
4472;SDS011;2249;42.626;23.320;2024-01-30T14:54:29;8.90;;;5.67;;
4472;SDS011;2249;42.626;23.320;2024-01-30T14:56:57;10.93;;;6.07;;
4472;SDS011;2249;42.626;23.320;2024-01-30T14:59:24;7.20;;;5.00;;